Terminal Aerodrome Forecast
Issued by NWS

Home | Current Version | Previous Version | Text Only | Print | Product List | Glossary On
Versions: 1 2 3 4 5 6 7 8 9 10 11 12 13 14 15 16 17 18 19 20 21 22 23 24 25 26 27 28
000
FTUS44 KEWX 292143 AAA
TAFSSF
TAF AMD
KSSF 292143Z 2922/3018 15012KT 6SM HZ VCSH BKN060 BKN070
     FM300000 23005KT P6SM SCT030
     FM300600 VRB03KT 5SM BR BKN008=

USA.gov is the U.S. government's official web portal to all federal, state and local government web resources and services.